sensor_id;sensor_type;location;lat;lon;timestamp;P1;durP1;ratioP1;P2;durP2;ratioP2
7933;SDS011;4012;48.896;9.192;2022-09-01T00:01:10;11.80;;;9.87;;
7933;SDS011;4012;48.896;9.192;2022-09-01T00:03:42;11.90;;;10.37;;
7933;SDS011;4012;48.896;9.192;2022-09-01T00:06:11;12.57;;;9.50;;
7933;SDS011;4012;48.896;9.192;2022-09-01T00:08:36;10.97;;;9.10;;
7933;SDS011;4012;48.896;9.192;2022-09-01T00:11:02;10.90;;;9.67;;
7933;SDS011;4012;48.896;9.192;2022-09-01T00:13:27;19.60;;;9.67;;
7933;SDS011;4012;48.896;9.192;2022-09-01T00:15:57;9.60;;;8.70;;
7933;SDS011;4012;48.896;9.192;2022-09-01T00:18:23;10.07;;;9.13;;
7933;SDS011;4012;48.896;9.192;2022-09-01T00:20:49;13.17;;;9.17;;
7933;SDS011;4012;48.896;9.192;2022-09-01T00:23:14;10.77;;;9.77;;
7933;SDS011;4012;48.896;9.192;2022-09-01T00:25:40;10.93;;;9.23;;
7933;SDS011;4012;48.896;9.192;2022-09-01T00:28:06;10.57;;;9.47;;
7933;SDS011;4012;48.896;9.192;2022-09-01T00:30:31;9.50;;;8.70;;
7933;SDS011;4012;48.896;9.192;2022-09-01T00:32:57;10.40;;;9.23;;
7933;SDS011;4012;48.896;9.192;2022-09-01T00:35:22;9.67;;;8.77;;
7933;SDS011;4012;48.896;9.192;2022-09-01T00:37:48;10.20;;;9.30;;
7933;SDS011;4012;48.896;9.192;2022-09-01T00:40:15;12.47;;;9.67;;
7933;SDS011;4012;48.896;9.192;2022-09-01T00:42:41;10.00;;;9.00;;
7933;SDS011;4012;48.896;9.192;2022-09-01T00:45:09;11.20;;;9.73;;
7933;SDS011;4012;48.896;9.192;2022-09-01T00:47:35;10.77;;;9.63;;
7933;SDS011;4012;48.896;9.192;2022-09-01T00:50:05;12.47;;;9.73;;
7933;SDS011;4012;48.896;9.192;2022-09-01T00:52:35;9.77;;;8.97;;
7933;SDS011;4012;48.896;9.192;2022-09-01T00:55:24;11.70;;;10.13;;
7933;SDS011;4012;48.896;9.192;2022-09-01T00:57:54;10.23;;;9.17;;
7933;SDS011;4012;48.896;9.192;2022-09-01T01:00:24;9.63;;;8.73;;
7933;SDS011;4012;48.896;9.192;2022-09-01T01:02:52;12.10;;;10.17;;
7933;SDS011;4012;48.896;9.192;2022-09-01T01:05:30;10.77;;;9.67;;
7933;SDS011;4012;48.896;9.192;2022-09-01T01:07:58;10.73;;;9.63;;
7933;SDS011;4012;48.896;9.192;2022-09-01T01:10:26;10.37;;;9.20;;
7933;SDS011;4012;48.896;9.192;2022-09-01T01:12:57;9.70;;;8.80;;
7933;SDS011;4012;48.896;9.192;2022-09-01T01:15:26;9.80;;;8.90;;
7933;SDS011;4012;48.896;9.192;2022-09-01T01:17:53;10.63;;;9.63;;
7933;SDS011;4012;48.896;9.192;2022-09-01T01:20:21;12.73;;;9.73;;
7933;SDS011;4012;48.896;9.192;2022-09-01T01:26:04;9.67;;;8.77;;
7933;SDS011;4012;48.896;9.192;2022-09-01T01:28:34;10.93;;;9.03;;
7933;SDS011;4012;48.896;9.192;2022-09-01T01:31:05;10.90;;;9.60;;
7933;SDS011;4012;48.896;9.192;2022-09-01T01:36:27;10.90;;;8.97;;
7933;SDS011;4012;48.896;9.192;2022-09-01T01:38:57;11.43;;;10.23;;
7933;SDS011;4012;48.896;9.192;2022-09-01T01:41:26;10.50;;;9.43;;
7933;SDS011;4012;48.896;9.192;2022-09-01T01:43:54;9.83;;;8.83;;
7933;SDS011;4012;48.896;9.192;2022-09-01T01:46:24;11.93;;;8.57;;
7933;SDS011;4012;48.896;9.192;2022-09-01T01:48:50;12.47;;;9.53;;
7933;SDS011;4012;48.896;9.192;2022-09-01T01:51:17;9.10;;;8.30;;
7933;SDS011;4012;48.896;9.192;2022-09-01T01:53:51;9.87;;;8.97;;
7933;SDS011;4012;48.896;9.192;2022-09-01T01:56:21;9.90;;;8.80;;
7933;SDS011;4012;48.896;9.192;2022-09-01T01:58:51;12.50;;;9.43;;
7933;SDS011;4012;48.896;9.192;2022-09-01T02:01:19;9.87;;;8.90;;
7933;SDS011;4012;48.896;9.192;2022-09-01T02:03:48;10.50;;;9.50;;
7933;SDS011;4012;48.896;9.192;2022-09-01T02:06:19;11.37;;;10.23;;
7933;SDS011;4012;48.896;9.192;2022-09-01T02:08:48;10.03;;;9.07;;
7933;SDS011;4012;48.896;9.192;2022-09-01T02:11:16;11.30;;;9.90;;
7933;SDS011;4012;48.896;9.192;2022-09-01T02:13:42;10.90;;;9.90;;
7933;SDS011;4012;48.896;9.192;2022-09-01T02:16:09;11.30;;;10.20;;
7933;SDS011;4012;48.896;9.192;2022-09-01T02:18:37;12.17;;;9.70;;
7933;SDS011;4012;48.896;9.192;2022-09-01T02:21:07;10.33;;;9.43;;
7933;SDS011;4012;48.896;9.192;2022-09-01T02:23:38;11.23;;;10.23;;
7933;SDS011;4012;48.896;9.192;2022-09-01T02:26:05;13.80;;;11.07;;
7933;SDS011;4012;48.896;9.192;2022-09-01T02:28:33;11.63;;;10.53;;
7933;SDS011;4012;48.896;9.192;2022-09-01T02:31:02;12.43;;;11.23;;
7933;SDS011;4012;48.896;9.192;2022-09-01T02:33:29;12.30;;;10.97;;
7933;SDS011;4012;48.896;9.192;2022-09-01T02:36:00;12.00;;;10.80;;
7933;SDS011;4012;48.896;9.192;2022-09-01T02:38:29;12.30;;;11.00;;
7933;SDS011;4012;48.896;9.192;2022-09-01T02:40:59;12.53;;;11.33;;
7933;SDS011;4012;48.896;9.192;2022-09-01T02:43:26;11.83;;;10.73;;
7933;SDS011;4012;48.896;9.192;2022-09-01T02:45:57;10.80;;;9.90;;
7933;SDS011;4012;48.896;9.192;2022-09-01T02:48:26;13.50;;;10.57;;
7933;SDS011;4012;48.896;9.192;2022-09-01T02:50:57;11.07;;;10.07;;
7933;SDS011;4012;48.896;9.192;2022-09-01T02:53:25;12.17;;;10.57;;
7933;SDS011;4012;48.896;9.192;2022-09-01T02:55:55;11.60;;;10.50;;
7933;SDS011;4012;48.896;9.192;2022-09-01T02:58:25;12.57;;;11.03;;
7933;SDS011;4012;48.896;9.192;2022-09-01T03:00:52;11.67;;;10.43;;
7933;SDS011;4012;48.896;9.192;2022-09-01T03:03:19;11.67;;;10.47;;
7933;SDS011;4012;48.896;9.192;2022-09-01T03:05:46;11.60;;;10.40;;
7933;SDS011;4012;48.896;9.192;2022-09-01T03:08:12;12.77;;;10.90;;
7933;SDS011;4012;48.896;9.192;2022-09-01T03:10:42;12.67;;;11.23;;
7933;SDS011;4012;48.896;9.192;2022-09-01T03:13:10;12.53;;;11.20;;
7933;SDS011;4012;48.896;9.192;2022-09-01T03:15:38;13.87;;;11.87;;
7933;SDS011;4012;48.896;9.192;2022-09-01T03:18:05;12.17;;;10.97;;
7933;SDS011;4012;48.896;9.192;2022-09-01T03:20:33;14.47;;;11.67;;
7933;SDS011;4012;48.896;9.192;2022-09-01T03:23:01;14.13;;;11.10;;
7933;SDS011;4012;48.896;9.192;2022-09-01T03:25:28;12.43;;;10.70;;
7933;SDS011;4012;48.896;9.192;2022-09-01T03:27:56;12.03;;;10.60;;
7933;SDS011;4012;48.896;9.192;2022-09-01T03:30:29;12.67;;;11.13;;
7933;SDS011;4012;48.896;9.192;2022-09-01T03:32:56;13.33;;;11.97;;
7933;SDS011;4012;48.896;9.192;2022-09-01T03:35:22;13.30;;;11.97;;
7933;SDS011;4012;48.896;9.192;2022-09-01T03:37:49;12.97;;;11.63;;
7933;SDS011;4012;48.896;9.192;2022-09-01T03:40:16;13.90;;;10.80;;
7933;SDS011;4012;48.896;9.192;2022-09-01T03:42:42;13.17;;;11.77;;
7933;SDS011;4012;48.896;9.192;2022-09-01T03:45:09;13.30;;;11.90;;
7933;SDS011;4012;48.896;9.192;2022-09-01T03:47:39;13.60;;;12.17;;
7933;SDS011;4012;48.896;9.192;2022-09-01T03:50:07;12.33;;;11.17;;
7933;SDS011;4012;48.896;9.192;2022-09-01T03:52:48;13.03;;;11.73;;
7933;SDS011;4012;48.896;9.192;2022-09-01T03:55:18;13.17;;;10.93;;
7933;SDS011;4012;48.896;9.192;2022-09-01T03:57:50;13.90;;;12.47;;
7933;SDS011;4012;48.896;9.192;2022-09-01T04:00:21;15.37;;;12.17;;
7933;SDS011;4012;48.896;9.192;2022-09-01T04:02:49;14.50;;;13.03;;
7933;SDS011;4012;48.896;9.192;2022-09-01T04:05:17;13.43;;;12.03;;
7933;SDS011;4012;48.896;9.192;2022-09-01T04:07:46;14.23;;;12.90;;
7933;SDS011;4012;48.896;9.192;2022-09-01T04:10:14;13.50;;;12.30;;
7933;SDS011;4012;48.896;9.192;2022-09-01T04:12:42;14.73;;;13.33;;
7933;SDS011;4012;48.896;9.192;2022-09-01T04:15:08;14.03;;;12.57;;
7933;SDS011;4012;48.896;9.192;2022-09-01T04:17:34;14.37;;;12.87;;
7933;SDS011;4012;48.896;9.192;2022-09-01T04:20:19;18.63;;;13.37;;
7933;SDS011;4012;48.896;9.192;2022-09-01T04:22:45;15.13;;;13.53;;
7933;SDS011;4012;48.896;9.192;2022-09-01T04:25:13;16.20;;;14.70;;
7933;SDS011;4012;48.896;9.192;2022-09-01T04:27:40;17.83;;;14.53;;
7933;SDS011;4012;48.896;9.192;2022-09-01T04:30:06;14.50;;;13.10;;
7933;SDS011;4012;48.896;9.192;2022-09-01T04:32:35;15.23;;;12.97;;
7933;SDS011;4012;48.896;9.192;2022-09-01T04:35:02;16.17;;;14.03;;
7933;SDS011;4012;48.896;9.192;2022-09-01T04:37:29;15.10;;;13.60;;
7933;SDS011;4012;48.896;9.192;2022-09-01T04:39:55;15.07;;;13.67;;
7933;SDS011;4012;48.896;9.192;2022-09-01T04:42:22;15.23;;;13.73;;
7933;SDS011;4012;48.896;9.192;2022-09-01T04:44:53;15.67;;;13.73;;
7933;SDS011;4012;48.896;9.192;2022-09-01T04:47:21;17.27;;;13.60;;
7933;SDS011;4012;48.896;9.192;2022-09-01T04:49:54;16.70;;;15.00;;
7933;SDS011;4012;48.896;9.192;2022-09-01T04:52:23;16.00;;;14.50;;
7933;SDS011;4012;48.896;9.192;2022-09-01T04:54:49;16.77;;;15.10;;
7933;SDS011;4012;48.896;9.192;2022-09-01T04:57:14;16.80;;;14.97;;
7933;SDS011;4012;48.896;9.192;2022-09-01T04:59:41;16.50;;;14.90;;
7933;SDS011;4012;48.896;9.192;2022-09-01T05:02:08;16.67;;;14.87;;
7933;SDS011;4012;48.896;9.192;2022-09-01T05:04:34;17.77;;;16.03;;
7933;SDS011;4012;48.896;9.192;2022-09-01T05:07:01;17.40;;;15.70;;
7933;SDS011;4012;48.896;9.192;2022-09-01T05:09:29;16.83;;;15.20;;
7933;SDS011;4012;48.896;9.192;2022-09-01T05:11:57;18.57;;;16.70;;
7933;SDS011;4012;48.896;9.192;2022-09-01T05:14:35;17.50;;;15.60;;
7933;SDS011;4012;48.896;9.192;2022-09-01T05:17:08;18.83;;;17.00;;
7933;SDS011;4012;48.896;9.192;2022-09-01T05:19:39;18.57;;;16.77;;
7933;SDS011;4012;48.896;9.192;2022-09-01T05:22:07;18.57;;;16.77;;
7933;SDS011;4012;48.896;9.192;2022-09-01T05:24:34;18.80;;;16.90;;
7933;SDS011;4012;48.896;9.192;2022-09-01T05:27:03;19.10;;;17.10;;
7933;SDS011;4012;48.896;9.192;2022-09-01T05:29:29;19.47;;;17.57;;
7933;SDS011;4012;48.896;9.192;2022-09-01T05:31:55;20.47;;;18.27;;
7933;SDS011;4012;48.896;9.192;2022-09-01T05:34:22;19.50;;;17.53;;
7933;SDS011;4012;48.896;9.192;2022-09-01T05:36:54;20.13;;;17.43;;
7933;SDS011;4012;48.896;9.192;2022-09-01T05:39:23;19.90;;;17.90;;
7933;SDS011;4012;48.896;9.192;2022-09-01T05:41:49;21.20;;;18.20;;
7933;SDS011;4012;48.896;9.192;2022-09-01T05:44:16;20.03;;;17.77;;
7933;SDS011;4012;48.896;9.192;2022-09-01T05:46:42;20.97;;;18.27;;
7933;SDS011;4012;48.896;9.192;2022-09-01T05:49:08;21.03;;;18.83;;
7933;SDS011;4012;48.896;9.192;2022-09-01T05:51:38;19.37;;;17.37;;
7933;SDS011;4012;48.896;9.192;2022-09-01T05:54:06;20.80;;;18.60;;
7933;SDS011;4012;48.896;9.192;2022-09-01T05:56:33;20.10;;;18.10;;
7933;SDS011;4012;48.896;9.192;2022-09-01T05:59:00;20.87;;;18.60;;
7933;SDS011;4012;48.896;9.192;2022-09-01T06:01:27;20.60;;;18.50;;
7933;SDS011;4012;48.896;9.192;2022-09-01T06:03:57;21.93;;;19.07;;
7933;SDS011;4012;48.896;9.192;2022-09-01T06:06:27;22.77;;;19.00;;
7933;SDS011;4012;48.896;9.192;2022-09-01T06:09:00;20.00;;;17.87;;
7933;SDS011;4012;48.896;9.192;2022-09-01T06:11:26;23.67;;;18.47;;
7933;SDS011;4012;48.896;9.192;2022-09-01T06:13:57;20.53;;;18.30;;
7933;SDS011;4012;48.896;9.192;2022-09-01T06:16:24;20.87;;;18.67;;
7933;SDS011;4012;48.896;9.192;2022-09-01T06:18:51;19.67;;;17.63;;
7933;SDS011;4012;48.896;9.192;2022-09-01T06:21:18;21.10;;;18.90;;
7933;SDS011;4012;48.896;9.192;2022-09-01T06:23:46;20.30;;;18.10;;
7933;SDS011;4012;48.896;9.192;2022-09-01T06:26:18;19.57;;;17.63;;
7933;SDS011;4012;48.896;9.192;2022-09-01T06:28:45;18.80;;;17.00;;
7933;SDS011;4012;48.896;9.192;2022-09-01T06:31:12;19.87;;;17.13;;
7933;SDS011;4012;48.896;9.192;2022-09-01T06:33:39;17.93;;;16.03;;
7933;SDS011;4012;48.896;9.192;2022-09-01T06:36:06;19.80;;;16.83;;
7933;SDS011;4012;48.896;9.192;2022-09-01T06:38:33;17.57;;;15.87;;
7933;SDS011;4012;48.896;9.192;2022-09-01T06:41:04;18.23;;;16.37;;
7933;SDS011;4012;48.896;9.192;2022-09-01T06:43:37;18.23;;;16.30;;
7933;SDS011;4012;48.896;9.192;2022-09-01T06:46:06;20.33;;;18.23;;
7933;SDS011;4012;48.896;9.192;2022-09-01T06:48:34;19.57;;;17.57;;
7933;SDS011;4012;48.896;9.192;2022-09-01T06:51:01;18.10;;;16.20;;
7933;SDS011;4012;48.896;9.192;2022-09-01T06:53:30;18.37;;;16.47;;
7933;SDS011;4012;48.896;9.192;2022-09-01T06:55:57;16.33;;;14.63;;
7933;SDS011;4012;48.896;9.192;2022-09-01T06:58:23;14.77;;;13.17;;
7933;SDS011;4012;48.896;9.192;2022-09-01T07:00:49;13.30;;;12.00;;
7933;SDS011;4012;48.896;9.192;2022-09-01T07:03:15;10.83;;;9.93;;
7933;SDS011;4012;48.896;9.192;2022-09-01T07:05:43;11.10;;;9.70;;
7933;SDS011;4012;48.896;9.192;2022-09-01T07:08:11;10.67;;;9.77;;
7933;SDS011;4012;48.896;9.192;2022-09-01T07:10:44;11.23;;;10.23;;
7933;SDS011;4012;48.896;9.192;2022-09-01T07:13:12;11.43;;;9.27;;
7933;SDS011;4012;48.896;9.192;2022-09-01T07:15:47;9.23;;;8.27;;
7933;SDS011;4012;48.896;9.192;2022-09-01T07:18:15;10.23;;;9.23;;
7933;SDS011;4012;48.896;9.192;2022-09-01T07:20:42;9.87;;;8.90;;
7933;SDS011;4012;48.896;9.192;2022-09-01T07:23:08;10.97;;;9.90;;
7933;SDS011;4012;48.896;9.192;2022-09-01T07:25:38;10.10;;;9.20;;
7933;SDS011;4012;48.896;9.192;2022-09-01T07:28:06;13.10;;;10.00;;
7933;SDS011;4012;48.896;9.192;2022-09-01T07:30:32;9.73;;;8.70;;
7933;SDS011;4012;48.896;9.192;2022-09-01T07:33:04;10.47;;;8.77;;
7933;SDS011;4012;48.896;9.192;2022-09-01T07:35:36;9.87;;;8.23;;
7933;SDS011;4012;48.896;9.192;2022-09-01T07:38:03;8.93;;;8.07;;
7933;SDS011;4012;48.896;9.192;2022-09-01T07:40:32;8.27;;;7.57;;
7933;SDS011;4012;48.896;9.192;2022-09-01T07:43:02;8.07;;;7.37;;
7933;SDS011;4012;48.896;9.192;2022-09-01T07:45:32;7.83;;;7.03;;
7933;SDS011;4012;48.896;9.192;2022-09-01T07:48:03;7.37;;;6.27;;
7933;SDS011;4012;48.896;9.192;2022-09-01T07:50:40;6.37;;;5.77;;
7933;SDS011;4012;48.896;9.192;2022-09-01T07:53:11;6.30;;;5.70;;
7933;SDS011;4012;48.896;9.192;2022-09-01T07:55:42;7.70;;;5.83;;
7933;SDS011;4012;48.896;9.192;2022-09-01T07:58:10;6.87;;;5.97;;
7933;SDS011;4012;48.896;9.192;2022-09-01T08:00:37;6.13;;;5.50;;
7933;SDS011;4012;48.896;9.192;2022-09-01T08:03:04;6.30;;;5.70;;
7933;SDS011;4012;48.896;9.192;2022-09-01T08:05:29;6.50;;;5.70;;
7933;SDS011;4012;48.896;9.192;2022-09-01T08:07:56;5.40;;;4.90;;
7933;SDS011;4012;48.896;9.192;2022-09-01T08:10:22;5.93;;;5.43;;
7933;SDS011;4012;48.896;9.192;2022-09-01T08:12:47;5.90;;;5.37;;
7933;SDS011;4012;48.896;9.192;2022-09-01T08:15:13;6.23;;;5.63;;
7933;SDS011;4012;48.896;9.192;2022-09-01T08:17:41;6.50;;;5.87;;
7933;SDS011;4012;48.896;9.192;2022-09-01T08:20:08;6.50;;;5.90;;
7933;SDS011;4012;48.896;9.192;2022-09-01T08:22:34;6.70;;;6.10;;
7933;SDS011;4012;48.896;9.192;2022-09-01T08:25:02;7.10;;;6.37;;
7933;SDS011;4012;48.896;9.192;2022-09-01T08:27:30;7.40;;;6.80;;
7933;SDS011;4012;48.896;9.192;2022-09-01T08:29:57;9.87;;;7.20;;
7933;SDS011;4012;48.896;9.192;2022-09-01T08:32:24;8.67;;;7.67;;
7933;SDS011;4012;48.896;9.192;2022-09-01T08:34:50;8.33;;;7.60;;
7933;SDS011;4012;48.896;9.192;2022-09-01T08:37:16;10.87;;;7.77;;
7933;SDS011;4012;48.896;9.192;2022-09-01T08:39:41;26.00;;;9.00;;
7933;SDS011;4012;48.896;9.192;2022-09-01T08:47:22;7.13;;;6.47;;
7933;SDS011;4012;48.896;9.192;2022-09-01T08:49:48;7.03;;;6.40;;
7933;SDS011;4012;48.896;9.192;2022-09-01T08:55:27;6.43;;;5.83;;
7933;SDS011;4012;48.896;9.192;2022-09-01T08:57:59;7.03;;;6.43;;
7933;SDS011;4012;48.896;9.192;2022-09-01T09:00:26;7.03;;;6.43;;
7933;SDS011;4012;48.896;9.192;2022-09-01T09:06:43;6.30;;;5.50;;
7933;SDS011;4012;48.896;9.192;2022-09-01T09:09:19;6.20;;;5.70;;
7933;SDS011;4012;48.896;9.192;2022-09-01T09:17:12;13.37;;;7.00;;
7933;SDS011;4012;48.896;9.192;2022-09-01T09:19:41;5.83;;;5.33;;
7933;SDS011;4012;48.896;9.192;2022-09-01T09:22:13;5.40;;;4.90;;
7933;SDS011;4012;48.896;9.192;2022-09-01T09:29:45;6.07;;;5.30;;
7933;SDS011;4012;48.896;9.192;2022-09-01T09:32:16;5.87;;;5.27;;
7933;SDS011;4012;48.896;9.192;2022-09-01T09:34:43;8.37;;;5.00;;
7933;SDS011;4012;48.896;9.192;2022-09-01T09:42:36;4.50;;;4.17;;
7933;SDS011;4012;48.896;9.192;2022-09-01T09:45:04;14.77;;;4.90;;
7933;SDS011;4012;48.896;9.192;2022-09-01T09:47:41;4.57;;;4.17;;
7933;SDS011;4012;48.896;9.192;2022-09-01T09:50:10;4.70;;;4.20;;
7933;SDS011;4012;48.896;9.192;2022-09-01T09:52:39;4.50;;;4.10;;
7933;SDS011;4012;48.896;9.192;2022-09-01T09:55:19;4.20;;;3.70;;
7933;SDS011;4012;48.896;9.192;2022-09-01T09:57:57;4.10;;;3.70;;
7933;SDS011;4012;48.896;9.192;2022-09-01T10:03:08;6.03;;;3.77;;
7933;SDS011;4012;48.896;9.192;2022-09-01T10:05:41;4.30;;;3.53;;
7933;SDS011;4012;48.896;9.192;2022-09-01T10:08:11;4.53;;;3.70;;
7933;SDS011;4012;48.896;9.192;2022-09-01T10:10:58;3.83;;;3.53;;
7933;SDS011;4012;48.896;9.192;2022-09-01T10:13:24;3.40;;;3.00;;
7933;SDS011;4012;48.896;9.192;2022-09-01T10:15:57;3.87;;;3.47;;
7933;SDS011;4012;48.896;9.192;2022-09-01T10:18:36;4.27;;;3.37;;
7933;SDS011;4012;48.896;9.192;2022-09-01T10:23:36;5.77;;;3.37;;
7933;SDS011;4012;48.896;9.192;2022-09-01T10:26:10;3.40;;;3.10;;
7933;SDS011;4012;48.896;9.192;2022-09-01T10:28:48;3.67;;;3.10;;
7933;SDS011;4012;48.896;9.192;2022-09-01T10:31:24;6.93;;;3.00;;
7933;SDS011;4012;48.896;9.192;2022-09-01T10:33:51;3.13;;;2.77;;
7933;SDS011;4012;48.896;9.192;2022-09-01T10:36:17;3.63;;;3.10;;
7933;SDS011;4012;48.896;9.192;2022-09-01T10:38:43;2.77;;;2.57;;
7933;SDS011;4012;48.896;9.192;2022-09-01T10:41:09;3.40;;;3.07;;
7933;SDS011;4012;48.896;9.192;2022-09-01T10:44:24;4.20;;;2.87;;
7933;SDS011;4012;48.896;9.192;2022-09-01T10:46:59;3.20;;;2.90;;
7933;SDS011;4012;48.896;9.192;2022-09-01T10:52:00;4.00;;;3.23;;
7933;SDS011;4012;48.896;9.192;2022-09-01T10:57:08;2.80;;;2.60;;
7933;SDS011;4012;48.896;9.192;2022-09-01T10:59:50;3.00;;;2.80;;
7933;SDS011;4012;48.896;9.192;2022-09-01T11:02:18;3.70;;;3.37;;
7933;SDS011;4012;48.896;9.192;2022-09-01T11:09:43;4.90;;;2.70;;
7933;SDS011;4012;48.896;9.192;2022-09-01T11:23:09;3.40;;;3.10;;
7933;SDS011;4012;48.896;9.192;2022-09-01T11:33:30;3.90;;;3.03;;
7933;SDS011;4012;48.896;9.192;2022-09-01T11:36:23;4.03;;;3.00;;
7933;SDS011;4012;48.896;9.192;2022-09-01T11:39:03;5.43;;;2.97;;
7933;SDS011;4012;48.896;9.192;2022-09-01T11:47:05;3.03;;;2.73;;
7933;SDS011;4012;48.896;9.192;2022-09-01T11:49:38;3.27;;;2.97;;
7933;SDS011;4012;48.896;9.192;2022-09-01T11:52:13;4.03;;;3.00;;
7933;SDS011;4012;48.896;9.192;2022-09-01T11:54:41;3.30;;;2.70;;
7933;SDS011;4012;48.896;9.192;2022-09-01T11:57:43;3.10;;;2.80;;
7933;SDS011;4012;48.896;9.192;2022-09-01T12:00:04;3.10;;;2.87;;
7933;SDS011;4012;48.896;9.192;2022-09-01T12:02:33;4.30;;;3.00;;
7933;SDS011;4012;48.896;9.192;2022-09-01T12:05:02;3.10;;;2.80;;
7933;SDS011;4012;48.896;9.192;2022-09-01T12:07:48;3.50;;;2.90;;
7933;SDS011;4012;48.896;9.192;2022-09-01T12:13:07;5.30;;;2.70;;
7933;SDS011;4012;48.896;9.192;2022-09-01T12:15:36;5.17;;;2.67;;
7933;SDS011;4012;48.896;9.192;2022-09-01T12:18:18;4.63;;;2.70;;
7933;SDS011;4012;48.896;9.192;2022-09-01T12:20:49;3.80;;;2.70;;
7933;SDS011;4012;48.896;9.192;2022-09-01T12:23:18;2.77;;;2.30;;
7933;SDS011;4012;48.896;9.192;2022-09-01T12:25:50;3.50;;;3.20;;
7933;SDS011;4012;48.896;9.192;2022-09-01T12:28:19;2.93;;;2.60;;
7933;SDS011;4012;48.896;9.192;2022-09-01T12:30:50;3.93;;;2.90;;
7933;SDS011;4012;48.896;9.192;2022-09-01T12:33:18;3.00;;;2.67;;
7933;SDS011;4012;48.896;9.192;2022-09-01T12:35:44;2.83;;;2.60;;
7933;SDS011;4012;48.896;9.192;2022-09-01T12:38:23;2.60;;;2.40;;
7933;SDS011;4012;48.896;9.192;2022-09-01T12:40:53;2.27;;;2.17;;
7933;SDS011;4012;48.896;9.192;2022-09-01T12:43:37;2.90;;;2.70;;
7933;SDS011;4012;48.896;9.192;2022-09-01T12:46:05;4.10;;;2.57;;
7933;SDS011;4012;48.896;9.192;2022-09-01T12:48:38;4.30;;;2.77;;
7933;SDS011;4012;48.896;9.192;2022-09-01T12:53:57;2.60;;;2.40;;
7933;SDS011;4012;48.896;9.192;2022-09-01T12:59:04;2.73;;;2.50;;
7933;SDS011;4012;48.896;9.192;2022-09-01T13:01:36;4.80;;;2.73;;
7933;SDS011;4012;48.896;9.192;2022-09-01T13:04:19;2.90;;;2.70;;
7933;SDS011;4012;48.896;9.192;2022-09-01T13:06:48;3.30;;;3.00;;
7933;SDS011;4012;48.896;9.192;2022-09-01T13:09:15;2.97;;;2.77;;
7933;SDS011;4012;48.896;9.192;2022-09-01T13:11:41;3.10;;;2.83;;
7933;SDS011;4012;48.896;9.192;2022-09-01T13:14:07;3.43;;;3.07;;
7933;SDS011;4012;48.896;9.192;2022-09-01T13:16:33;3.33;;;2.70;;
7933;SDS011;4012;48.896;9.192;2022-09-01T13:19:01;3.70;;;2.80;;
7933;SDS011;4012;48.896;9.192;2022-09-01T13:21:28;3.07;;;2.60;;
7933;SDS011;4012;48.896;9.192;2022-09-01T13:23:54;2.97;;;2.40;;
7933;SDS011;4012;48.896;9.192;2022-09-01T13:26:20;3.80;;;2.60;;
7933;SDS011;4012;48.896;9.192;2022-09-01T13:28:46;3.40;;;2.87;;
7933;SDS011;4012;48.896;9.192;2022-09-01T13:31:12;3.00;;;2.70;;
7933;SDS011;4012;48.896;9.192;2022-09-01T13:33:38;2.97;;;2.70;;
7933;SDS011;4012;48.896;9.192;2022-09-01T13:36:04;2.60;;;2.40;;
7933;SDS011;4012;48.896;9.192;2022-09-01T13:38:30;2.60;;;2.40;;
7933;SDS011;4012;48.896;9.192;2022-09-01T13:40:57;2.63;;;2.43;;
7933;SDS011;4012;48.896;9.192;2022-09-01T13:43:25;2.40;;;2.20;;
7933;SDS011;4012;48.896;9.192;2022-09-01T13:45:51;2.57;;;2.10;;
7933;SDS011;4012;48.896;9.192;2022-09-01T13:48:18;2.47;;;2.27;;
7933;SDS011;4012;48.896;9.192;2022-09-01T13:50:45;2.90;;;2.37;;
7933;SDS011;4012;48.896;9.192;2022-09-01T13:53:22;2.70;;;2.50;;
7933;SDS011;4012;48.896;9.192;2022-09-01T13:55:47;2.30;;;2.10;;
7933;SDS011;4012;48.896;9.192;2022-09-01T13:58:13;3.10;;;2.53;;
7933;SDS011;4012;48.896;9.192;2022-09-01T14:00:40;2.23;;;2.13;;
7933;SDS011;4012;48.896;9.192;2022-09-01T14:03:09;2.83;;;2.20;;
7933;SDS011;4012;48.896;9.192;2022-09-01T14:05:38;2.57;;;2.37;;
7933;SDS011;4012;48.896;9.192;2022-09-01T14:08:06;5.10;;;2.50;;
7933;SDS011;4012;48.896;9.192;2022-09-01T14:10:36;5.90;;;2.80;;
7933;SDS011;4012;48.896;9.192;2022-09-01T14:13:04;5.43;;;2.30;;
7933;SDS011;4012;48.896;9.192;2022-09-01T14:15:30;6.70;;;2.30;;
7933;SDS011;4012;48.896;9.192;2022-09-01T14:17:56;4.23;;;2.63;;
7933;SDS011;4012;48.896;9.192;2022-09-01T14:20:23;2.50;;;2.20;;
7933;SDS011;4012;48.896;9.192;2022-09-01T14:22:55;2.57;;;2.27;;
7933;SDS011;4012;48.896;9.192;2022-09-01T14:25:21;3.13;;;2.40;;
7933;SDS011;4012;48.896;9.192;2022-09-01T14:27:46;2.80;;;2.47;;
7933;SDS011;4012;48.896;9.192;2022-09-01T14:30:17;2.50;;;2.30;;
7933;SDS011;4012;48.896;9.192;2022-09-01T14:32:45;2.70;;;2.50;;
7933;SDS011;4012;48.896;9.192;2022-09-01T14:35:11;2.60;;;2.40;;
7933;SDS011;4012;48.896;9.192;2022-09-01T14:37:38;2.53;;;2.33;;
7933;SDS011;4012;48.896;9.192;2022-09-01T14:40:04;3.27;;;2.43;;
7933;SDS011;4012;48.896;9.192;2022-09-01T14:42:32;3.60;;;2.20;;
7933;SDS011;4012;48.896;9.192;2022-09-01T14:44:58;2.50;;;2.30;;
7933;SDS011;4012;48.896;9.192;2022-09-01T14:47:24;2.63;;;2.43;;
7933;SDS011;4012;48.896;9.192;2022-09-01T14:49:52;3.13;;;2.47;;
7933;SDS011;4012;48.896;9.192;2022-09-01T14:52:18;2.87;;;2.60;;
7933;SDS011;4012;48.896;9.192;2022-09-01T14:54:45;2.93;;;2.40;;
7933;SDS011;4012;48.896;9.192;2022-09-01T14:57:11;4.80;;;2.60;;
7933;SDS011;4012;48.896;9.192;2022-09-01T14:59:38;2.33;;;2.20;;
7933;SDS011;4012;48.896;9.192;2022-09-01T15:02:04;5.93;;;2.30;;
7933;SDS011;4012;48.896;9.192;2022-09-01T15:04:30;2.30;;;2.10;;
7933;SDS011;4012;48.896;9.192;2022-09-01T15:06:56;2.20;;;2.00;;
7933;SDS011;4012;48.896;9.192;2022-09-01T15:09:21;2.53;;;2.10;;
7933;SDS011;4012;48.896;9.192;2022-09-01T15:11:47;2.67;;;2.27;;
7933;SDS011;4012;48.896;9.192;2022-09-01T15:14:13;2.33;;;1.90;;
7933;SDS011;4012;48.896;9.192;2022-09-01T15:16:39;2.27;;;2.07;;
7933;SDS011;4012;48.896;9.192;2022-09-01T15:19:10;2.13;;;1.93;;
7933;SDS011;4012;48.896;9.192;2022-09-01T15:21:37;3.33;;;2.13;;
7933;SDS011;4012;48.896;9.192;2022-09-01T15:24:04;2.90;;;2.20;;
7933;SDS011;4012;48.896;9.192;2022-09-01T15:26:31;3.00;;;2.27;;
7933;SDS011;4012;48.896;9.192;2022-09-01T15:28:57;2.40;;;2.20;;
7933;SDS011;4012;48.896;9.192;2022-09-01T15:31:24;4.90;;;2.30;;
7933;SDS011;4012;48.896;9.192;2022-09-01T15:33:53;4.37;;;2.27;;
7933;SDS011;4012;48.896;9.192;2022-09-01T15:36:21;2.43;;;2.10;;
7933;SDS011;4012;48.896;9.192;2022-09-01T15:38:49;2.30;;;2.10;;
7933;SDS011;4012;48.896;9.192;2022-09-01T15:41:22;2.20;;;1.80;;
7933;SDS011;4012;48.896;9.192;2022-09-01T15:43:50;2.40;;;2.20;;
7933;SDS011;4012;48.896;9.192;2022-09-01T15:46:16;2.43;;;2.03;;
7933;SDS011;4012;48.896;9.192;2022-09-01T15:48:42;2.50;;;2.10;;
7933;SDS011;4012;48.896;9.192;2022-09-01T15:54:17;2.53;;;2.17;;
7933;SDS011;4012;48.896;9.192;2022-09-01T15:56:44;2.40;;;2.20;;
7933;SDS011;4012;48.896;9.192;2022-09-01T15:59:11;2.30;;;2.00;;
7933;SDS011;4012;48.896;9.192;2022-09-01T16:01:38;2.50;;;2.30;;
7933;SDS011;4012;48.896;9.192;2022-09-01T16:04:07;3.00;;;2.47;;
7933;SDS011;4012;48.896;9.192;2022-09-01T16:06:35;2.83;;;1.93;;
7933;SDS011;4012;48.896;9.192;2022-09-01T16:09:03;2.73;;;2.00;;
7933;SDS011;4012;48.896;9.192;2022-09-01T16:11:30;2.33;;;2.10;;
7933;SDS011;4012;48.896;9.192;2022-09-01T16:13:56;3.63;;;2.20;;
7933;SDS011;4012;48.896;9.192;2022-09-01T16:24:29;6.13;;;2.43;;
7933;SDS011;4012;48.896;9.192;2022-09-01T16:27:02;2.47;;;2.13;;
7933;SDS011;4012;48.896;9.192;2022-09-01T16:29:43;2.93;;;2.07;;
7933;SDS011;4012;48.896;9.192;2022-09-01T16:32:12;3.67;;;2.20;;
7933;SDS011;4012;48.896;9.192;2022-09-01T16:34:42;3.50;;;2.60;;
7933;SDS011;4012;48.896;9.192;2022-09-01T16:42:54;3.17;;;2.87;;
7933;SDS011;4012;48.896;9.192;2022-09-01T16:46:01;3.20;;;2.63;;
7933;SDS011;4012;48.896;9.192;2022-09-01T16:59:38;3.70;;;2.93;;
7933;SDS011;4012;48.896;9.192;2022-09-01T17:02:35;5.10;;;2.87;;
7933;SDS011;4012;48.896;9.192;2022-09-01T17:10:25;5.40;;;3.00;;
7933;SDS011;4012;48.896;9.192;2022-09-01T17:15:59;4.50;;;2.90;;